Time;durP1;ratioP1;P1;durP2;ratioP2;P2;SDS_P1;SDS_P2;PMS_P1;PMS_P2;Temp;Humidity;BMP_temperature;BMP_pressure;BME280_temperature;BME280_humidity;BME280_pressure;Samples;Min_cycle;Max_cycle;Signal;HPM_P1;HPM_P2
2023/09/18 00:00:55;;;;;;;9.10;6.40;;;22.30;74.30;;;;;;5087885;28;20461;-79
2023/09/18 00:03:24;;;;;;;9.07;5.80;;;22.30;74.40;;;;;;5085629;28;20448;-79
2023/09/18 00:05:54;;;;;;;10.30;6.30;;;22.30;74.50;;;;;;5068825;28;20504;-78
2023/09/18 00:08:22;;;;;;;9.77;5.90;;;22.30;74.60;;;;;;5089968;28;20445;-79
2023/09/18 00:10:53;;;;;;;8.70;6.13;;;22.30;74.60;;;;;;5085478;28;20452;-80
2023/09/18 00:13:21;;;;;;;9.47;5.90;;;22.30;74.60;;;;;;5088882;28;20560;-79
2023/09/18 00:15:52;;;;;;;8.13;5.00;;;22.30;74.60;;;;;;5066481;28;21054;-78
2023/09/18 00:18:21;;;;;;;11.63;5.60;;;22.30;74.70;;;;;;5088626;28;20461;-79
2023/09/18 00:20:51;;;;;;;10.00;6.80;;;22.30;74.70;;;;;;5088260;28;20489;-77
2023/09/18 00:23:22;;;;;;;9.07;5.73;;;22.30;74.80;;;;;;5069838;28;20490;-78
2023/09/18 00:25:50;;;;;;;9.90;6.43;;;22.30;74.60;;;;;;5087370;28;20473;-78
2023/09/18 00:28:18;;;;;;;10.40;6.57;;;22.30;74.60;;;;;;5099922;28;20449;-77
2023/09/18 00:30:49;;;;;;;7.80;5.73;;;22.30;74.50;;;;;;5087734;28;20484;-79
2023/09/18 00:33:19;;;;;;;9.83;6.43;;;22.30;74.50;;;;;;5087317;28;20457;-78
2023/09/18 00:35:48;;;;;;;9.60;6.50;;;22.20;74.40;;;;;;5085209;28;20461;-77
2023/09/18 00:38:16;;;;;;;12.27;6.90;;;22.20;74.50;;;;;;5068125;28;20831;-79
2023/09/18 00:40:45;;;;;;;9.47;6.13;;;22.20;74.50;;;;;;5087967;28;20526;-79
2023/09/18 00:43:13;;;;;;;9.67;6.63;;;22.10;74.50;;;;;;5081990;28;20555;-79
2023/09/18 00:45:45;;;;;;;9.40;6.23;;;22.10;74.50;;;;;;5085058;28;20472;-78
2023/09/18 00:48:15;;;;;;;8.00;5.50;;;22.10;74.60;;;;;;5085184;28;20444;-79
2023/09/18 00:50:45;;;;;;;8.80;5.80;;;22.10;74.50;;;;;;5063057;28;20459;-78
2023/09/18 00:53:17;;;;;;;8.37;6.47;;;22.00;74.60;;;;;;5086857;28;20482;-77
2023/09/18 00:55:47;;;;;;;8.63;5.97;;;22.00;74.60;;;;;;5081427;28;20452;-78
2023/09/18 00:58:16;;;;;;;8.57;6.10;;;21.90;74.60;;;;;;5066201;28;20531;-78
2023/09/18 01:00:45;;;;;;;9.53;6.90;;;21.90;74.60;;;;;;5069652;28;20460;-79
2023/09/18 01:03:13;;;;;;;15.93;6.90;;;21.90;74.60;;;;;;5088280;28;20480;-78
2023/09/18 01:05:41;;;;;;;10.33;6.60;;;21.80;74.70;;;;;;5093527;28;20469;-78
2023/09/18 01:08:09;;;;;;;8.70;6.67;;;21.80;74.70;;;;;;5069266;28;20457;-78
2023/09/18 01:10:48;;;;;;;9.87;6.60;;;21.80;74.80;;;;;;5087048;28;20543;-80
2023/09/18 01:13:24;;;;;;;8.23;5.97;;;21.80;74.80;;;;;;5082413;28;20457;-79
2023/09/18 01:15:58;;;;;;;10.20;6.93;;;21.70;74.80;;;;;;5065896;28;20453;-78
2023/09/18 01:18:26;;;;;;;9.37;6.30;;;21.70;74.80;;;;;;5070944;28;20583;-79
2023/09/18 01:20:54;;;;;;;11.40;6.40;;;21.60;74.80;;;;;;5090173;28;20456;-78
2023/09/18 01:23:23;;;;;;;9.97;6.07;;;21.60;74.90;;;;;;5069236;28;20510;-78
2023/09/18 01:25:53;;;;;;;7.70;5.93;;;21.50;75.00;;;;;;5071358;28;21049;-78
2023/09/18 01:28:21;;;;;;;9.90;6.30;;;21.50;75.10;;;;;;5081710;28;20544;-78
2023/09/18 01:30:49;;;;;;;10.27;6.57;;;21.50;75.20;;;;;;5065325;28;20508;-79
2023/09/18 01:33:19;;;;;;;10.77;6.03;;;21.50;75.20;;;;;;5068495;28;21106;-79
2023/09/18 01:35:48;;;;;;;8.50;6.30;;;21.50;75.10;;;;;;5084382;28;20461;-79
2023/09/18 01:38:17;;;;;;;9.97;6.87;;;21.40;75.10;;;;;;5070817;28;20476;-77
2023/09/18 01:40:48;;;;;;;9.10;6.00;;;21.40;75.20;;;;;;5104474;28;20467;-79
2023/09/18 01:43:16;;;;;;;9.53;7.13;;;21.30;75.20;;;;;;5090937;28;20484;-79
2023/09/18 01:45:44;;;;;;;8.80;6.60;;;21.40;75.40;;;;;;5104999;28;22915;-79
2023/09/18 01:48:12;;;;;;;9.03;6.73;;;21.30;75.30;;;;;;5069852;28;20478;-79
2023/09/18 01:50:41;;;;;;;8.60;5.93;;;21.30;75.30;;;;;;5090825;28;21026;-79
2023/09/18 01:53:08;;;;;;;11.03;6.10;;;21.30;75.30;;;;;;5072134;28;20490;-78
2023/09/18 01:55:36;;;;;;;9.90;7.03;;;21.30;75.20;;;;;;5086871;28;20466;-79
2023/09/18 01:58:05;;;;;;;9.50;6.33;;;21.20;75.20;;;;;;5068427;28;20555;-79
2023/09/18 02:00:34;;;;;;;9.17;6.60;;;21.20;75.20;;;;;;5071656;28;21358;-79
2023/09/18 02:03:04;;;;;;;11.13;7.33;;;21.10;75.30;;;;;;5092812;28;20498;-79
2023/09/18 02:05:52;;;;;;;10.90;6.90;;;21.10;75.40;;;;;;5092865;28;20480;-79
2023/09/18 02:08:20;;;;;;;10.20;7.10;;;21.10;75.40;;;;;;5094031;28;20847;-79
2023/09/18 02:10:52;;;;;;;9.10;6.60;;;21.00;75.60;;;;;;5079327;28;20460;-79
2023/09/18 02:13:22;;;;;;;14.10;7.20;;;21.00;75.60;;;;;;5098630;28;20449;-79
2023/09/18 02:15:50;;;;;;;10.47;7.20;;;21.00;75.80;;;;;;5076062;28;20471;-79
2023/09/18 02:18:18;;;;;;;9.83;6.33;;;21.00;75.90;;;;;;5063556;28;20455;-79
2023/09/18 02:20:48;;;;;;;9.37;6.20;;;21.00;75.90;;;;;;5071484;28;20453;-79
2023/09/18 02:23:16;;;;;;;9.40;6.50;;;20.90;76.00;;;;;;5088891;28;20902;-79
2023/09/18 02:25:44;;;;;;;9.87;6.90;;;21.00;76.00;;;;;;5071607;28;20586;-79
2023/09/18 02:28:12;;;;;;;10.03;7.20;;;21.00;76.10;;;;;;5087850;28;20465;-78
2023/09/18 02:30:42;;;;;;;8.77;6.00;;;21.00;76.10;;;;;;5066274;28;20511;-79
2023/09/18 02:33:10;;;;;;;11.20;6.33;;;21.00;76.10;;;;;;5076498;28;20460;-80
2023/09/18 02:35:38;;;;;;;9.77;6.83;;;21.00;76.10;;;;;;5085428;28;20491;-79
2023/09/18 02:38:07;;;;;;;9.50;6.20;;;21.00;76.10;;;;;;5068529;28;20458;-79
2023/09/18 02:40:35;;;;;;;8.63;6.50;;;21.00;76.30;;;;;;5070316;28;20978;-80
2023/09/18 02:43:03;;;;;;;8.87;6.43;;;21.00;76.40;;;;;;5072610;28;20958;-79
2023/09/18 02:45:33;;;;;;;12.53;6.00;;;21.00;76.50;;;;;;5072835;28;20459;-79
2023/09/18 02:48:02;;;;;;;10.00;5.87;;;21.10;76.50;;;;;;5073076;28;20484;-79
2023/09/18 02:50:30;;;;;;;12.27;6.80;;;21.00;76.40;;;;;;5071269;28;20947;-80
2023/09/18 02:52:59;;;;;;;10.97;6.67;;;21.00;76.50;;;;;;5070458;28;20610;-79
2023/09/18 02:55:27;;;;;;;11.60;7.90;;;21.00;76.50;;;;;;5071148;28;21019;-78
2023/09/18 02:57:55;;;;;;;9.63;7.00;;;21.00;76.60;;;;;;5069267;28;20994;-80
2023/09/18 03:00:23;;;;;;;15.23;7.60;;;21.00;76.80;;;;;;5090283;28;20445;-78
2023/09/18 03:03:12;;;;;;;29.30;8.30;;;21.00;76.90;;;;;;5080538;28;20533;-79
2023/09/18 03:05:41;;;;;;;14.70;7.07;;;21.00;77.20;;;;;;5088233;28;20538;-78
2023/09/18 03:08:10;;;;;;;11.33;7.30;;;21.00;77.50;;;;;;5082871;28;20476;-79
2023/09/18 03:10:41;;;;;;;12.40;7.10;;;20.90;77.60;;;;;;5072923;28;20476;-78
2023/09/18 03:13:10;;;;;;;12.40;8.17;;;21.00;77.80;;;;;;5072260;28;20568;-80
2023/09/18 03:15:39;;;;;;;12.83;8.17;;;20.80;78.20;;;;;;5072854;28;20461;-80
2023/09/18 03:18:08;;;;;;;12.00;8.00;;;20.70;78.30;;;;;;5089561;28;20551;-80
2023/09/18 03:20:37;;;;;;;15.07;8.40;;;20.70;78.50;;;;;;5074658;28;20467;-80
2023/09/18 03:23:05;;;;;;;12.00;7.83;;;20.70;78.70;;;;;;5072327;28;20457;-79
2023/09/18 03:25:33;;;;;;;12.47;8.03;;;20.70;78.80;;;;;;5089298;28;21131;-80
2023/09/18 03:28:18;;;;;;;13.27;8.47;;;20.80;78.80;;;;;;5087684;28;20485;-79
2023/09/18 03:30:47;;;;;;;14.03;8.50;;;20.80;78.90;;;;;;5071673;28;20572;-79
2023/09/18 03:33:15;;;;;;;10.93;8.07;;;20.80;79.00;;;;;;5086045;28;20962;-80
2023/09/18 03:35:48;;;;;;;12.60;7.80;;;20.80;79.10;;;;;;5088702;28;20471;-78
2023/09/18 03:38:20;;;;;;;12.50;8.20;;;20.90;79.20;;;;;;5070231;28;20457;-78
2023/09/18 03:40:49;;;;;;;12.53;8.70;;;20.90;79.10;;;;;;5069405;28;20453;-79
2023/09/18 03:43:18;;;;;;;15.80;8.10;;;20.90;79.10;;;;;;5070716;28;20453;-79
2023/09/18 03:45:46;;;;;;;11.33;8.47;;;20.90;79.30;;;;;;5066211;28;20545;-79
2023/09/18 03:48:14;;;;;;;15.40;8.60;;;20.90;79.50;;;;;;5086205;28;20982;-79
2023/09/18 03:50:43;;;;;;;12.80;8.20;;;20.90;79.50;;;;;;5071850;28;20848;-79
2023/09/18 03:53:13;;;;;;;13.93;8.27;;;20.90;79.50;;;;;;5085835;28;20461;-78
2023/09/18 03:55:41;;;;;;;12.37;8.30;;;20.90;79.70;;;;;;5081389;28;20474;-79
2023/09/18 03:58:10;;;;;;;12.00;8.57;;;20.80;79.70;;;;;;5071625;28;20445;-78
2023/09/18 04:00:38;;;;;;;14.93;9.37;;;20.80;79.70;;;;;;5085066;28;20506;-77
2023/09/18 04:03:06;;;;;;;12.60;9.30;;;20.80;79.90;;;;;;5067931;28;20480;-78
2023/09/18 04:05:34;;;;;;;14.07;8.93;;;20.80;80.00;;;;;;5088639;28;20492;-77
2023/09/18 04:08:02;;;;;;;17.00;9.23;;;20.80;80.10;;;;;;5068630;28;20998;-78
2023/09/18 04:10:32;;;;;;;14.20;9.70;;;20.80;80.20;;;;;;5068142;28;20450;-77
2023/09/18 04:13:00;;;;;;;13.73;9.23;;;20.80;80.30;;;;;;5100825;28;20540;-78
2023/09/18 04:15:30;;;;;;;13.43;8.33;;;20.90;80.30;;;;;;5084625;28;20493;-79
2023/09/18 04:17:58;;;;;;;12.73;8.97;;;20.90;80.30;;;;;;5098246;28;20453;-78
2023/09/18 04:20:27;;;;;;;15.47;9.07;;;20.90;80.40;;;;;;5085916;28;20461;-79
2023/09/18 04:23:18;;;;;;;12.77;9.17;;;21.00;80.30;;;;;;5102021;28;20459;-79
2023/09/18 04:25:47;;;;;;;13.80;9.23;;;21.00;80.30;;;;;;5068808;28;20455;-78
2023/09/18 04:28:15;;;;;;;15.23;9.63;;;20.90;80.30;;;;;;5089455;28;20472;-79
2023/09/18 04:30:43;;;;;;;14.50;10.33;;;20.80;80.40;;;;;;5074256;28;20854;-79
2023/09/18 04:33:12;;;;;;;12.83;9.70;;;20.80;80.50;;;;;;5091993;28;20463;-80
2023/09/18 04:35:41;;;;;;;18.07;10.40;;;20.80;80.70;;;;;;5089448;28;21081;-79
2023/09/18 04:38:10;;;;;;;16.40;9.70;;;20.80;80.80;;;;;;5101375;28;20535;-79
2023/09/18 04:40:38;;;;;;;14.07;9.63;;;20.80;80.90;;;;;;5089827;28;20456;-78
2023/09/18 04:43:10;;;;;;;13.23;10.00;;;20.90;80.90;;;;;;5102579;28;20491;-79
2023/09/18 04:45:38;;;;;;;15.27;9.67;;;20.90;81.00;;;;;;5086073;28;20456;-78
2023/09/18 04:48:08;;;;;;;14.40;10.77;;;20.90;81.00;;;;;;5088263;28;20909;-79
2023/09/18 04:50:37;;;;;;;15.20;9.57;;;21.00;81.00;;;;;;5088886;28;20467;-77
2023/09/18 04:53:05;;;;;;;11.87;9.47;;;21.00;80.90;;;;;;5087145;28;20524;-78
2023/09/18 04:55:33;;;;;;;14.17;8.73;;;21.00;80.90;;;;;;5087634;28;20458;-79
2023/09/18 04:58:03;;;;;;;16.43;10.00;;;21.00;80.90;;;;;;5090358;28;20444;-77
2023/09/18 05:00:33;;;;;;;13.80;9.80;;;21.00;80.90;;;;;;5104207;28;20535;-77
2023/09/18 05:03:03;;;;;;;11.80;8.97;;;21.00;80.90;;;;;;5088842;28;20460;-78
2023/09/18 05:05:31;;;;;;;12.53;9.90;;;20.90;81.00;;;;;;5088308;28;20460;-79
2023/09/18 05:07:59;;;;;;;17.43;9.60;;;20.90;81.00;;;;;;5085308;28;20483;-79
2023/09/18 05:10:27;;;;;;;12.20;8.53;;;20.90;81.10;;;;;;5089154;28;20544;-79
2023/09/18 05:12:58;;;;;;;13.30;8.93;;;20.90;81.10;;;;;;5105698;28;20451;-80
2023/09/18 05:15:29;;;;;;;11.13;8.77;;;20.90;81.20;;;;;;5087705;28;20460;-79
2023/09/18 05:18:00;;;;;;;11.70;8.77;;;21.00;81.30;;;;;;5088377;28;21033;-79
2023/09/18 05:20:30;;;;;;;12.77;8.37;;;21.00;81.30;;;;;;5105809;28;20818;-80
2023/09/18 05:23:01;;;;;;;11.03;7.90;;;21.00;81.30;;;;;;5105096;28;20459;-79
2023/09/18 05:25:31;;;;;;;11.53;7.50;;;21.10;81.20;;;;;;5086882;28;20460;-79
2023/09/18 05:28:01;;;;;;;10.70;6.90;;;21.10;81.20;;;;;;5105164;28;20525;-79
2023/09/18 05:30:34;;;;;;;10.70;7.37;;;21.10;81.30;;;;;;5105249;28;20553;-80
2023/09/18 05:33:05;;;;;;;9.43;6.57;;;21.10;81.30;;;;;;5105461;28;20484;-79
2023/09/18 05:35:34;;;;;;;12.20;6.07;;;21.10;81.20;;;;;;5107242;28;20464;-79
2023/09/18 05:38:02;;;;;;;11.10;6.07;;;21.20;81.20;;;;;;5087726;28;20452;-80
2023/09/18 05:40:32;;;;;;;13.67;5.53;;;21.20;81.20;;;;;;5105385;28;20471;-78
2023/09/18 05:43:00;;;;;;;14.50;5.40;;;21.30;81.10;;;;;;5103426;28;20474;-80
2023/09/18 05:45:29;;;;;;;13.50;6.03;;;21.30;81.10;;;;;;5081649;28;20518;-79
2023/09/18 05:48:01;;;;;;;15.73;6.17;;;21.40;81.10;;;;;;5105479;28;20571;-80
2023/09/18 05:50:32;;;;;;;13.03;5.30;;;21.40;81.00;;;;;;5105986;28;20481;-80
2023/09/18 05:53:03;;;;;;;11.90;5.33;;;21.40;81.00;;;;;;5104438;28;20460;-79
2023/09/18 05:55:32;;;;;;;10.07;6.00;;;21.40;80.90;;;;;;5101667;28;20544;-79
2023/09/18 05:58:04;;;;;;;11.90;5.40;;;21.40;81.00;;;;;;5105647;28;20444;-79
2023/09/18 06:00:32;;;;;;;13.63;5.43;;;21.50;81.10;;;;;;5107391;28;20562;-80
2023/09/18 06:03:00;;;;;;;14.20;6.00;;;21.50;81.10;;;;;;5106643;28;20522;-79
2023/09/18 06:05:33;;;;;;;12.87;6.57;;;21.50;81.00;;;;;;5087959;28;20542;-79
2023/09/18 06:08:02;;;;;;;13.20;6.10;;;21.50;81.10;;;;;;5099627;28;20571;-79
2023/09/18 06:10:30;;;;;;;15.83;5.60;;;21.50;81.10;;;;;;5106287;28;20460;-80
2023/09/18 06:13:03;;;;;;;12.00;6.20;;;21.50;81.20;;;;;;5086247;28;20852;-78
2023/09/18 06:15:33;;;;;;;15.30;6.53;;;21.50;81.30;;;;;;5089010;28;20467;-81
2023/09/18 06:18:03;;;;;;;15.40;6.60;;;21.50;81.40;;;;;;5086483;28;20456;-80
2023/09/18 06:20:35;;;;;;;17.67;6.67;;;21.50;81.50;;;;;;5090269;28;20455;-78
2023/09/18 06:23:04;;;;;;;16.10;6.80;;;21.50;81.70;;;;;;5105938;28;20466;-79
2023/09/18 06:25:32;;;;;;;19.60;7.60;;;21.50;81.70;;;;;;5106916;28;20455;-79
2023/09/18 06:28:03;;;;;;;11.87;5.57;;;21.50;81.80;;;;;;5111963;28;20455;-79
2023/09/18 06:30:32;;;;;;;17.87;7.07;;;21.50;81.80;;;;;;5113298;28;20479;-79
2023/09/18 06:33:01;;;;;;;14.07;5.97;;;21.50;81.90;;;;;;5109731;28;20943;-79
2023/09/18 06:35:29;;;;;;;11.67;6.23;;;21.60;82.00;;;;;;5106340;28;20456;-79
2023/09/18 06:37:59;;;;;;;14.97;6.53;;;21.60;82.10;;;;;;5107861;28;20554;-79
2023/09/18 06:40:27;;;;;;;12.33;5.77;;;21.60;82.10;;;;;;5109567;28;20451;-80
2023/09/18 06:43:00;;;;;;;15.30;6.00;;;21.60;82.20;;;;;;5107728;28;20463;-80
2023/09/18 06:45:28;;;;;;;12.67;5.87;;;21.70;82.20;;;;;;5107264;28;20866;-80
2023/09/18 06:47:56;;;;;;;17.80;7.27;;;21.70;82.20;;;;;;5087696;28;21114;-80
2023/09/18 06:50:24;;;;;;;16.87;6.47;;;21.70;82.20;;;;;;5090368;28;20474;-79
2023/09/18 06:52:52;;;;;;;19.13;7.20;;;21.70;82.30;;;;;;5108425;28;20866;-80
2023/09/18 06:55:22;;;;;;;19.30;7.77;;;21.70;82.30;;;;;;5107413;28;20460;-80
2023/09/18 06:57:51;;;;;;;12.63;7.33;;;21.70;82.40;;;;;;5101200;28;20484;-80
2023/09/18 07:00:21;;;;;;;13.73;7.60;;;21.70;82.40;;;;;;5107648;28;20447;-80
2023/09/18 07:02:50;;;;;;;12.73;7.43;;;21.70;82.60;;;;;;5103659;28;20880;-80
2023/09/18 07:05:18;;;;;;;18.70;8.10;;;21.70;82.70;;;;;;5090637;28;20452;-80
2023/09/18 07:07:46;;;;;;;13.40;7.50;;;21.70;82.70;;;;;;5092659;28;20507;-80
2023/09/18 07:10:14;;;;;;;13.63;8.23;;;21.80;82.70;;;;;;5108578;28;20558;-79
2023/09/18 07:12:43;;;;;;;15.77;8.40;;;21.80;82.60;;;;;;5090219;28;20456;-79
2023/09/18 07:15:11;;;;;;;14.87;7.93;;;21.80;82.60;;;;;;5087333;28;20845;-80
2023/09/18 07:17:39;;;;;;;15.83;7.03;;;21.80;82.60;;;;;;5101593;28;20447;-79
2023/09/18 07:20:13;;;;;;;15.87;8.73;;;21.80;82.60;;;;;;5104141;28;20821;-79
2023/09/18 07:22:47;;;;;;;14.70;7.67;;;21.80;82.60;;;;;;5104973;28;20520;-79
2023/09/18 07:25:15;;;;;;;14.90;7.33;;;21.80;82.60;;;;;;5090188;28;20977;-81
2023/09/18 07:27:44;;;;;;;15.47;7.37;;;21.80;82.60;;;;;;5110940;28;20448;-79
2023/09/18 07:30:15;;;;;;;12.70;7.90;;;21.80;82.70;;;;;;5088102;28;21165;-80
2023/09/18 07:32:44;;;;;;;15.97;8.20;;;21.80;82.80;;;;;;5107127;28;20457;-79
2023/09/18 07:35:13;;;;;;;17.03;8.33;;;21.80;82.80;;;;;;5105745;28;20463;-79
2023/09/18 07:37:41;;;;;;;14.83;7.90;;;21.80;82.90;;;;;;5089016;28;20826;-79
2023/09/18 07:40:09;;;;;;;18.23;8.40;;;21.80;82.90;;;;;;5091371;28;20481;-78
2023/09/18 07:42:37;;;;;;;18.27;9.07;;;21.80;82.90;;;;;;5110026;28;20451;-79
2023/09/18 07:45:08;;;;;;;16.73;8.00;;;21.80;82.90;;;;;;5109137;28;20450;-80
2023/09/18 07:47:36;;;;;;;15.13;7.70;;;21.80;83.00;;;;;;5106417;28;20458;-80
2023/09/18 07:50:05;;;;;;;15.80;7.47;;;21.80;83.00;;;;;;5107818;28;20511;-80
2023/09/18 07:52:33;;;;;;;16.90;6.83;;;21.80;83.00;;;;;;5107812;28;20456;-79
2023/09/18 07:55:01;;;;;;;17.03;7.47;;;21.80;83.20;;;;;;5085137;28;20459;-80
2023/09/18 07:57:30;;;;;;;19.13;7.40;;;21.90;83.20;;;;;;5106483;28;20451;-80
2023/09/18 07:59:58;;;;;;;17.23;8.00;;;21.90;83.30;;;;;;5107476;28;20451;-80
2023/09/18 08:02:28;;;;;;;19.13;8.53;;;21.90;83.40;;;;;;5102254;28;20567;-81
2023/09/18 08:04:57;;;;;;;11.87;7.10;;;22.00;83.40;;;;;;5091804;28;20452;-80
2023/09/18 08:07:25;;;;;;;10.83;6.03;;;22.00;83.40;;;;;;5091473;28;20448;-79
2023/09/18 08:09:53;;;;;;;11.30;4.97;;;22.10;83.50;;;;;;5108735;28;20570;-80
2023/09/18 08:12:21;;;;;;;11.03;4.53;;;22.10;83.40;;;;;;5109117;28;20559;-80
2023/09/18 08:14:50;;;;;;;14.60;4.07;;;22.10;83.40;;;;;;5108536;28;20504;-79
2023/09/18 08:17:18;;;;;;;12.50;4.93;;;22.10;83.40;;;;;;5105967;28;20999;-80
2023/09/18 08:19:50;;;;;;;9.70;4.30;;;22.20;83.40;;;;;;5090983;28;20459;-79
2023/09/18 08:22:20;;;;;;;10.77;4.53;;;22.20;83.40;;;;;;5110003;28;20501;-79
2023/09/18 08:24:48;;;;;;;20.43;4.53;;;22.30;83.30;;;;;;5100992;28;20456;-79
2023/09/18 08:27:17;;;;;;;14.53;4.10;;;22.30;83.10;;;;;;5104839;28;20452;-80
2023/09/18 08:29:45;;;;;;;11.33;3.90;;;22.40;83.00;;;;;;5106216;28;20818;-79
2023/09/18 08:32:13;;;;;;;10.57;3.93;;;22.40;82.90;;;;;;5085889;28;20998;-80
2023/09/18 08:34:41;;;;;;;18.77;3.77;;;22.50;82.70;;;;;;5105260;28;20456;-80
2023/09/18 08:37:11;;;;;;;7.60;3.20;;;22.50;82.60;;;;;;5106001;28;20462;-80
2023/09/18 08:39:39;;;;;;;7.03;3.47;;;22.50;82.60;;;;;;5107239;28;20475;-79
2023/09/18 08:42:10;;;;;;;11.27;3.60;;;22.50;82.50;;;;;;5105571;28;20447;-81
2023/09/18 08:44:40;;;;;;;11.33;3.77;;;22.60;82.40;;;;;;5087125;28;20452;-81
2023/09/18 08:47:11;;;;;;;15.60;4.33;;;22.60;82.30;;;;;;5106602;28;20630;-80
2023/09/18 08:49:40;;;;;;;10.00;3.40;;;22.60;82.20;;;;;;5106288;28;20476;-80
2023/09/18 08:52:11;;;;;;;10.87;3.20;;;22.60;82.10;;;;;;5087342;28;20451;-80
2023/09/18 08:54:40;;;;;;;9.43;2.33;;;22.70;81.90;;;;;;5106877;28;20462;-79
2023/09/18 08:57:08;;;;;;;9.27;2.70;;;22.60;81.50;;;;;;5101142;28;20456;-80
2023/09/18 08:59:37;;;;;;;8.50;2.30;;;22.60;81.40;;;;;;5105638;28;20542;-79
2023/09/18 09:02:07;;;;;;;9.90;2.27;;;22.60;81.30;;;;;;5102605;28;20483;-80
2023/09/18 09:04:35;;;;;;;7.10;1.90;;;22.60;81.10;;;;;;5103280;28;20524;-79
2023/09/18 09:07:04;;;;;;;13.87;2.67;;;22.50;81.00;;;;;;5104854;28;20488;-78
2023/09/18 09:09:33;;;;;;;11.50;2.63;;;22.50;81.00;;;;;;5103328;28;20486;-79
2023/09/18 09:12:02;;;;;;;11.20;2.87;;;22.50;80.80;;;;;;5108154;28;20447;-80
2023/09/18 09:14:30;;;;;;;8.80;2.37;;;22.50;80.70;;;;;;5105373;28;20929;-79
2023/09/18 09:16:58;;;;;;;8.00;2.60;;;22.50;80.60;;;;;;5104994;28;20463;-80
2023/09/18 09:19:31;;;;;;;6.40;2.67;;;22.60;80.50;;;;;;5103322;28;20486;-78
2023/09/18 09:22:00;;;;;;;7.97;1.87;;;22.60;80.40;;;;;;5108052;28;20542;-79
2023/09/18 09:24:42;;;;;;;8.10;2.00;;;22.60;80.30;;;;;;5101789;28;20471;-80
2023/09/18 09:27:10;;;;;;;7.07;2.20;;;22.60;80.10;;;;;;5103605;28;20460;-80
2023/09/18 09:29:38;;;;;;;7.20;2.20;;;22.60;80.10;;;;;;5088354;28;20449;-79
2023/09/18 09:32:14;;;;;;;7.73;1.70;;;22.60;80.00;;;;;;5073498;28;20795;-80
2023/09/18 09:34:43;;;;;;;9.57;2.10;;;22.60;79.70;;;;;;5085018;28;20452;-80
2023/09/18 09:37:11;;;;;;;9.60;2.90;;;22.60;79.60;;;;;;5069728;28;20995;-80
2023/09/18 09:39:51;;;;;;;9.00;2.30;;;22.60;79.40;;;;;;5086861;28;20449;-80
2023/09/18 09:42:24;;;;;;;7.80;2.00;;;22.60;79.20;;;;;;5085182;28;20449;-80
2023/09/18 09:45:04;;;;;;;6.87;2.07;;;22.60;79.10;;;;;;5088665;28;20483;-80
2023/09/18 09:47:34;;;;;;;8.17;2.07;;;22.60;78.90;;;;;;5070652;28;20499;-80
2023/09/18 09:50:09;;;;;;;6.40;1.67;;;22.60;78.80;;;;;;5090582;28;20473;-79
2023/09/18 09:52:43;;;;;;;9.07;1.90;;;22.50;78.70;;;;;;5067257;28;20453;-79
2023/09/18 09:55:28;;;;;;;6.90;2.13;;;22.50;78.60;;;;;;5062717;28;20449;-81
2023/09/18 09:57:59;;;;;;;6.80;2.03;;;22.50;78.70;;;;;;5082218;28;20822;-80
2023/09/18 10:00:32;;;;;;;8.47;2.30;;;22.50;78.70;;;;;;5093265;28;20559;-78
2023/09/18 10:03:02;;;;;;;8.10;1.80;;;22.50;78.70;;;;;;5112368;28;20447;-80
2023/09/18 10:05:34;;;;;;;7.80;2.50;;;22.50;78.70;;;;;;5106242;28;20514;-81
2023/09/18 10:08:08;;;;;;;5.43;1.90;;;22.50;78.90;;;;;;5110750;28;20459;-80
2023/09/18 10:10:43;;;;;;;10.07;2.53;;;22.50;79.00;;;;;;5108738;28;20578;-79
2023/09/18 10:13:16;;;;;;;7.30;2.40;;;22.50;79.00;;;;;;5106444;28;20479;-79
2023/09/18 10:15:46;;;;;;;7.57;2.07;;;22.50;79.10;;;;;;5111112;28;20448;-80
2023/09/18 10:18:28;;;;;;;8.47;2.27;;;22.50;79.20;;;;;;5109676;27;20542;-80
2023/09/18 10:21:07;;;;;;;11.63;2.50;;;22.50;79.30;;;;;;5111021;28;20458;-79
2023/09/18 10:23:48;;;;;;;7.70;2.33;;;22.50;79.40;;;;;;5110362;28;20464;-79
2023/09/18 10:26:24;;;;;;;6.03;1.87;;;22.50;79.50;;;;;;5109081;28;20454;-80
2023/09/18 10:28:58;;;;;;;7.00;2.07;;;22.40;79.60;;;;;;5103237;28;20973;-80
2023/09/18 10:31:27;;;;;;;7.37;2.23;;;22.40;79.60;;;;;;5107391;28;20463;-80
2023/09/18 10:33:57;;;;;;;6.27;2.27;;;22.40;79.70;;;;;;5091428;28;20541;-79
2023/09/18 10:36:27;;;;;;;9.70;2.20;;;22.40;79.80;;;;;;5102728;28;20452;-80
2023/09/18 10:38:57;;;;;;;7.93;2.50;;;22.40;79.90;;;;;;5115516;28;20447;-81
2023/09/18 10:41:27;;;;;;;9.80;3.10;;;22.40;80.00;;;;;;5109022;28;20483;-80
2023/09/18 10:43:58;;;;;;;8.70;2.57;;;22.40;80.00;;;;;;5100869;28;20482;-80
2023/09/18 10:46:27;;;;;;;8.33;2.10;;;22.40;80.00;;;;;;5110657;28;20474;-80
2023/09/18 10:48:56;;;;;;;6.10;2.10;;;22.40;80.00;;;;;;5104947;28;20534;-80
2023/09/18 10:51:25;;;;;;;6.33;1.87;;;22.40;80.00;;;;;;5106783;28;20564;-80
2023/09/18 10:53:53;;;;;;;7.07;2.23;;;22.40;80.00;;;;;;5106510;28;20459;-80
2023/09/18 10:56:21;;;;;;;8.70;2.30;;;22.40;80.10;;;;;;5107891;28;20444;-81
2023/09/18 10:58:59;;;;;;;9.43;2.53;;;22.30;80.10;;;;;;5108759;28;20521;-80
2023/09/18 11:01:28;;;;;;;9.47;2.07;;;22.30;80.30;;;;;;5095071;28;20479;-79
2023/09/18 11:04:02;;;;;;;9.93;2.50;;;22.30;80.40;;;;;;5090163;28;20453;-79
2023/09/18 11:06:31;;;;;;;7.50;2.63;;;22.20;80.50;;;;;;5078151;28;20957;-80
2023/09/18 11:09:04;;;;;;;7.50;2.20;;;22.20;80.50;;;;;;5085621;28;20501;-79
2023/09/18 11:11:35;;;;;;;7.23;1.90;;;22.20;80.60;;;;;;5083546;28;20480;-78
2023/09/18 11:14:11;;;;;;;9.17;2.40;;;22.20;80.60;;;;;;5087694;28;20461;-79
2023/09/18 11:16:40;;;;;;;7.60;2.20;;;22.20;80.80;;;;;;5087769;28;20461;-78
2023/09/18 11:19:11;;;;;;;6.90;2.17;;;22.20;80.80;;;;;;5071603;28;21113;-78
2023/09/18 11:21:40;;;;;;;8.80;2.40;;;22.30;80.90;;;;;;5087549;28;20461;-80
2023/09/18 11:24:17;;;;;;;6.90;1.80;;;22.30;80.90;;;;;;5084911;28;20468;-81
2023/09/18 11:26:47;;;;;;;6.63;2.07;;;22.40;80.80;;;;;;5086139;28;20475;-79
2023/09/18 11:29:21;;;;;;;4.90;2.13;;;22.40;80.80;;;;;;5089731;28;20445;-79
2023/09/18 11:31:51;;;;;;;7.53;2.17;;;22.40;80.80;;;;;;5084671;28;21249;-80
2023/09/18 11:34:23;;;;;;;9.57;2.63;;;22.40;80.90;;;;;;5086833;28;20453;-79
2023/09/18 11:36:52;;;;;;;8.00;2.40;;;22.40;80.90;;;;;;5089142;28;20480;-79
2023/09/18 11:39:37;;;;;;;11.23;2.57;;;22.40;81.00;;;;;;5087396;28;20445;-78
2023/09/18 11:42:10;;;;;;;6.10;2.23;;;22.50;81.10;;;;;;5083379;28;20553;-81
2023/09/18 11:44:45;;;;;;;7.63;2.20;;;22.50;81.10;;;;;;5084885;28;20976;-79
2023/09/18 11:47:21;;;;;;;9.33;2.57;;;22.50;81.10;;;;;;5068188;28;20695;-79
2023/09/18 11:49:54;;;;;;;7.87;2.30;;;22.50;81.10;;;;;;5086933;28;20457;-79
2023/09/18 11:52:24;;;;;;;13.40;2.90;;;22.50;81.10;;;;;;5084623;28;20483;-78
2023/09/18 11:54:54;;;;;;;8.47;2.50;;;22.50;81.00;;;;;;5085777;28;20456;-80
2023/09/18 11:57:24;;;;;;;9.47;2.20;;;22.50;81.20;;;;;;5085342;28;20457;-79
2023/09/18 11:59:53;;;;;;;9.53;2.47;;;22.50;81.20;;;;;;5089488;28;20812;-80
2023/09/18 12:02:34;;;;;;;6.87;2.13;;;22.50;81.20;;;;;;5084490;28;21165;-81
2023/09/18 12:05:10;;;;;;;7.20;2.10;;;22.60;81.20;;;;;;5080864;28;20468;-79
2023/09/18 12:07:39;;;;;;;7.73;2.30;;;22.50;81.10;;;;;;5069284;28;20505;-79
2023/09/18 12:10:10;;;;;;;11.40;2.50;;;22.50;81.10;;;;;;5087261;28;20979;-80
2023/09/18 12:12:38;;;;;;;12.43;2.87;;;22.50;81.10;;;;;;5084531;28;20503;-80
2023/09/18 12:15:11;;;;;;;6.93;2.50;;;22.60;81.10;;;;;;5097971;28;20456;-79
2023/09/18 12:17:40;;;;;;;10.23;2.87;;;22.60;81.10;;;;;;5084801;28;20464;-79
2023/09/18 12:20:18;;;;;;;7.20;2.53;;;22.60;81.10;;;;;;5068756;28;20456;-80
2023/09/18 12:22:49;;;;;;;8.27;3.00;;;22.60;81.00;;;;;;5085348;28;20460;-78
2023/09/18 12:25:18;;;;;;;6.17;2.70;;;22.60;80.80;;;;;;5084714;28;20458;-80
2023/09/18 12:27:46;;;;;;;6.80;2.30;;;22.60;80.90;;;;;;5082382;28;20522;-80
2023/09/18 12:30:20;;;;;;;9.80;2.50;;;22.60;81.00;;;;;;5086099;28;20459;-79
2023/09/18 12:32:48;;;;;;;16.37;3.10;;;22.60;81.00;;;;;;5069545;28;20512;-81
2023/09/18 12:35:18;;;;;;;7.93;2.80;;;22.70;81.00;;;;;;5088377;28;20463;-79
2023/09/18 12:37:46;;;;;;;7.50;2.80;;;22.70;81.00;;;;;;5088250;28;20449;-79
2023/09/18 12:40:28;;;;;;;6.93;2.73;;;22.70;81.00;;;;;;5086625;28;20882;-81
2023/09/18 12:42:57;;;;;;;7.07;2.87;;;22.70;80.90;;;;;;5085336;28;20471;-79
2023/09/18 12:45:29;;;;;;;8.47;2.50;;;22.70;80.90;;;;;;5085275;28;20532;-79
2023/09/18 12:47:58;;;;;;;7.50;2.33;;;22.70;80.90;;;;;;5087953;28;20457;-79
2023/09/18 12:50:27;;;;;;;8.90;3.03;;;22.70;80.90;;;;;;5080026;28;20466;-79
2023/09/18 12:53:08;;;;;;;7.20;2.03;;;22.70;80.90;;;;;;5086881;28;20479;-80
2023/09/18 12:55:37;;;;;;;7.63;3.10;;;22.70;80.70;;;;;;5085344;28;20451;-79